KHDE

Brewster Field Airport

Holdrege, Nebraska, USA
METAR KHDE 180255Z AUTO 20005KT 10SM CLR M01/M02 A3000 RMK AO2 T10081016
Observed Flight Rules
Dec-18 @ 02:55 UTC (16 minutes ago) Visual Flight Rules
Wind Visibility Clouds
200° at 5 knots 10 miles
  • Clear skies
Temperatures Readings
Current -1°C / 30°F
Dewpoint -2°C / 28°F
Humidity 93%
Altimeter 30" Hg
Pressure 1016 hPa
Elevation 705
METAR KHDE 180255Z AUTO 20005KT 10SM CLR M01/M02 A3000 RMK AO2 T10081016
Observed Flight Rules
Dec-18 @ 02:55 UTC
(16 minutes ago)
VFR
Wind Visibility
200° at 5 knots 10 miles
Clouds
  • Clear skies
Temperature Dewpoint
-1°C / 30°F -2°C / 28°F
Humidity Altimeter Pressure
93% 30" Hg 1016 hPa